首页
METAR-TAF:

METAR-TAF

机场 :

格域機場, 英格兰

纬度: 51-09N, 经度: 000-11W, 海拔: 62米

当前天气观测

该预报发布于29分钟前的14:20 UTC
风速24节,风向西,有时为34节阵风
温度 14°C
湿度 63%
气压 1016 hPa
能见度10公里或以上
散云层高于4400英尺
附近有阵雨

METAR: EGKK 231420Z 28024G34KT 9999 VCSH SCT044 14/07 Q1016

时间: 14:49 (14:49 UTC)

预报

该预报发布于3小时和45分钟前的11:04 UTC
预报有效从23日的 12点(UTC)到 24日的 18点(UTC)
风速18节,风向西,有时为28节阵风
能见度10公里或以上
散云层高于2500英尺
短暂存在
从 23日的 12点(UTC)到 23日的 14点(UTC)
能見度: 6000
多云层高于1400英尺
阵雨, 雨
成为
从 23日的 14点(UTC)到 23日的 17点(UTC)
风速8节,风向西
成为
从 23日的 23点(UTC)到 24日的 02点(UTC)
风速10节,风向南转南东
多云层高于1000英尺
短暂存在
从 24日的 01点(UTC)到 24日的 08点(UTC)
能見度: 7000
多云层高于600英尺
小雨
几率 30% :
短暂存在
从 24日的 02点(UTC)到 24日的 07点(UTC)
能見度: 3000
多云层高于300英尺
雨, 毛毛雨
成为
从 24日的 05点(UTC)到 24日的 08点(UTC)
风速20节,风向西南,有时为32节阵风
短暂存在
从 24日的 08点(UTC)到 24日的 16点(UTC)
能見度: 4000
多云层高于800英尺
成为
从 24日的 15点(UTC)到 24日的 18点(UTC)
风速16节,风向西,有时为26节阵风
多云层高于3000英尺

TAF: EGKK 231104Z 2312/2418 26018G28KT 9999 SCT025 TEMPO 2312/2314 6000 SHRA RA BKN014 BECMG 2314/2317 28008KT BECMG 2323/2402 15010KT BKN010 TEMPO 2401/2408 7000 -RA BKN006 PROB30 TEMPO 2402/2407 3000 RADZ BKN003 BECMG 2405/2408 23020G32KT TEMPO 2408/2416 4000 RA BKN008 BECMG 2415/2418 26016G26KT BKN030

超过4000个机场的气象观测和天气预报(METAR&TAF报告)。

可查询的气象台以黄色和红色小点在地图上表示。

将鼠标移到小点上方,可查看气象台名称。

然后点击查看天气观测和预报。

如需切换地图:点击带黑十字的绿色按钮放大地图;点击带横线的绿色按钮缩小地图;或者点击绿色箭头查看邻近地区的地图。


METAR-TAF: